sensor_id;sensor_type;location;lat;lon;timestamp;P1;durP1;ratioP1;P2;durP2;ratioP2
7523;SDS011;3803;51.666;7.630;2022-11-24T00:00:16;14.70;;;4.67;;
7523;SDS011;3803;51.666;7.630;2022-11-24T00:00:37;15.63;;;4.80;;
7523;SDS011;3803;51.666;7.630;2022-11-24T00:01:01;17.40;;;4.60;;
7523;SDS011;3803;51.666;7.630;2022-11-24T00:01:29;14.57;;;4.28;;
7523;SDS011;3803;51.666;7.630;2022-11-24T00:01:50;8.35;;;3.70;;
7523;SDS011;3803;51.666;7.630;2022-11-24T00:02:13;10.17;;;3.87;;
7523;SDS011;3803;51.666;7.630;2022-11-24T00:02:34;12.18;;;4.30;;
7523;SDS011;3803;51.666;7.630;2022-11-24T00:02:54;14.70;;;4.43;;
7523;SDS011;3803;51.666;7.630;2022-11-24T00:03:15;14.33;;;4.50;;
7523;SDS011;3803;51.666;7.630;2022-11-24T00:03:36;13.50;;;4.40;;
7523;SDS011;3803;51.666;7.630;2022-11-24T00:04:03;11.68;;;4.38;;
7523;SDS011;3803;51.666;7.630;2022-11-24T00:04:25;13.60;;;4.18;;
7523;SDS011;3803;51.666;7.630;2022-11-24T00:04:45;17.73;;;4.63;;
7523;SDS011;3803;51.666;7.630;2022-11-24T00:05:06;17.25;;;5.00;;
7523;SDS011;3803;51.666;7.630;2022-11-24T00:05:27;13.70;;;5.03;;
7523;SDS011;3803;51.666;7.630;2022-11-24T00:05:48;13.05;;;4.90;;
7523;SDS011;3803;51.666;7.630;2022-11-24T00:06:09;14.85;;;4.65;;
7523;SDS011;3803;51.666;7.630;2022-11-24T00:06:33;15.38;;;4.57;;
7523;SDS011;3803;51.666;7.630;2022-11-24T00:06:55;14.82;;;4.80;;
7523;SDS011;3803;51.666;7.630;2022-11-24T00:07:15;14.70;;;4.70;;
7523;SDS011;3803;51.666;7.630;2022-11-24T00:07:36;14.82;;;4.60;;
7523;SDS011;3803;51.666;7.630;2022-11-24T00:07:57;13.83;;;4.10;;
7523;SDS011;3803;51.666;7.630;2022-11-24T00:08:17;13.85;;;4.03;;
7523;SDS011;3803;51.666;7.630;2022-11-24T00:08:38;13.77;;;3.95;;
7523;SDS011;3803;51.666;7.630;2022-11-24T00:09:00;13.52;;;4.20;;
7523;SDS011;3803;51.666;7.630;2022-11-24T00:09:22;10.10;;;4.03;;
7523;SDS011;3803;51.666;7.630;2022-11-24T00:09:43;9.27;;;3.90;;
7523;SDS011;3803;51.666;7.630;2022-11-24T00:10:03;10.47;;;4.10;;
7523;SDS011;3803;51.666;7.630;2022-11-24T00:10:24;10.98;;;4.10;;
7523;SDS011;3803;51.666;7.630;2022-11-24T00:10:45;12.15;;;4.18;;
7523;SDS011;3803;51.666;7.630;2022-11-24T00:11:06;11.05;;;4.22;;
7523;SDS011;3803;51.666;7.630;2022-11-24T00:11:33;12.20;;;4.32;;
7523;SDS011;3803;51.666;7.630;2022-11-24T00:11:55;10.27;;;4.03;;
7523;SDS011;3803;51.666;7.630;2022-11-24T00:12:15;9.00;;;3.67;;
7523;SDS011;3803;51.666;7.630;2022-11-24T00:12:36;9.63;;;4.00;;
7523;SDS011;3803;51.666;7.630;2022-11-24T00:12:57;12.43;;;4.30;;
7523;SDS011;3803;51.666;7.630;2022-11-24T00:13:17;14.15;;;4.00;;
7523;SDS011;3803;51.666;7.630;2022-11-24T00:13:38;14.80;;;4.00;;
7523;SDS011;3803;51.666;7.630;2022-11-24T00:13:59;15.00;;;4.40;;
7523;SDS011;3803;51.666;7.630;2022-11-24T00:14:20;11.90;;;4.50;;
7523;SDS011;3803;51.666;7.630;2022-11-24T00:14:41;12.70;;;4.78;;
7523;SDS011;3803;51.666;7.630;2022-11-24T00:15:02;11.23;;;4.65;;
7523;SDS011;3803;51.666;7.630;2022-11-24T00:15:23;12.10;;;4.50;;
7523;SDS011;3803;51.666;7.630;2022-11-24T00:15:43;14.10;;;4.50;;
7523;SDS011;3803;51.666;7.630;2022-11-24T00:16:09;16.00;;;4.60;;
7523;SDS011;3803;51.666;7.630;2022-11-24T00:16:32;14.55;;;4.40;;
7523;SDS011;3803;51.666;7.630;2022-11-24T00:16:54;11.58;;;4.06;;
7523;SDS011;3803;51.666;7.630;2022-11-24T00:17:15;10.77;;;3.80;;
7523;SDS011;3803;51.666;7.630;2022-11-24T00:17:35;10.52;;;3.80;;
7523;SDS011;3803;51.666;7.630;2022-11-24T00:17:56;12.20;;;3.80;;
7523;SDS011;3803;51.666;7.630;2022-11-24T00:18:17;12.93;;;4.30;;
7523;SDS011;3803;51.666;7.630;2022-11-24T00:18:38;13.63;;;4.35;;
7523;SDS011;3803;51.666;7.630;2022-11-24T00:19:00;13.07;;;4.45;;
7523;SDS011;3803;51.666;7.630;2022-11-24T00:19:22;12.45;;;4.30;;
7523;SDS011;3803;51.666;7.630;2022-11-24T00:19:43;13.55;;;4.38;;
7523;SDS011;3803;51.666;7.630;2022-11-24T00:20:04;13.50;;;4.40;;
7523;SDS011;3803;51.666;7.630;2022-11-24T00:20:25;12.15;;;4.20;;
7523;SDS011;3803;51.666;7.630;2022-11-24T00:20:52;10.75;;;4.20;;
7523;SDS011;3803;51.666;7.630;2022-11-24T00:21:13;10.77;;;3.90;;
7523;SDS011;3803;51.666;7.630;2022-11-24T00:21:36;14.32;;;4.00;;
7523;SDS011;3803;51.666;7.630;2022-11-24T00:21:57;14.65;;;4.07;;
7523;SDS011;3803;51.666;7.630;2022-11-24T00:22:17;14.50;;;4.05;;
7523;SDS011;3803;51.666;7.630;2022-11-24T00:22:38;11.82;;;4.38;;
7523;SDS011;3803;51.666;7.630;2022-11-24T00:22:59;9.17;;;4.03;;
7523;SDS011;3803;51.666;7.630;2022-11-24T00:23:20;9.40;;;4.30;;
7523;SDS011;3803;51.666;7.630;2022-11-24T00:23:41;9.75;;;3.75;;
7523;SDS011;3803;51.666;7.630;2022-11-24T00:24:02;12.55;;;4.05;;
7523;SDS011;3803;51.666;7.630;2022-11-24T00:24:23;11.65;;;3.70;;
7523;SDS011;3803;51.666;7.630;2022-11-24T00:24:44;10.25;;;3.80;;
7523;SDS011;3803;51.666;7.630;2022-11-24T00:25:04;10.50;;;3.80;;
7523;SDS011;3803;51.666;7.630;2022-11-24T00:25:25;11.70;;;3.70;;
7523;SDS011;3803;51.666;7.630;2022-11-24T00:25:46;10.85;;;3.60;;
7523;SDS011;3803;51.666;7.630;2022-11-24T00:26:08;12.77;;;3.83;;
7523;SDS011;3803;51.666;7.630;2022-11-24T00:26:31;14.10;;;4.13;;
7523;SDS011;3803;51.666;7.630;2022-11-24T00:26:53;15.75;;;4.50;;
7523;SDS011;3803;51.666;7.630;2022-11-24T00:27:14;14.00;;;4.50;;
7523;SDS011;3803;51.666;7.630;2022-11-24T00:27:35;13.77;;;4.38;;
7523;SDS011;3803;51.666;7.630;2022-11-24T00:27:56;12.97;;;4.20;;
7523;SDS011;3803;51.666;7.630;2022-11-24T00:28:16;13.30;;;4.32;;
7523;SDS011;3803;51.666;7.630;2022-11-24T00:28:37;12.60;;;4.47;;
7523;SDS011;3803;51.666;7.630;2022-11-24T00:28:59;11.25;;;4.20;;
7523;SDS011;3803;51.666;7.630;2022-11-24T00:29:22;9.60;;;3.72;;
7523;SDS011;3803;51.666;7.630;2022-11-24T00:29:43;9.93;;;3.60;;
7523;SDS011;3803;51.666;7.630;2022-11-24T00:30:03;11.97;;;3.87;;
7523;SDS011;3803;51.666;7.630;2022-11-24T00:30:24;13.13;;;4.20;;
7523;SDS011;3803;51.666;7.630;2022-11-24T00:30:45;14.48;;;4.45;;
7523;SDS011;3803;51.666;7.630;2022-11-24T00:31:15;14.45;;;4.70;;
7523;SDS011;3803;51.666;7.630;2022-11-24T00:31:39;13.70;;;4.13;;
7523;SDS011;3803;51.666;7.630;2022-11-24T00:32:00;14.65;;;4.35;;
7523;SDS011;3803;51.666;7.630;2022-11-24T00:32:28;14.25;;;4.60;;
7523;SDS011;3803;51.666;7.630;2022-11-24T00:32:51;12.95;;;4.68;;
7523;SDS011;3803;51.666;7.630;2022-11-24T00:33:11;10.35;;;4.18;;
7523;SDS011;3803;51.666;7.630;2022-11-24T00:33:32;11.38;;;4.22;;
7523;SDS011;3803;51.666;7.630;2022-11-24T00:33:54;13.03;;;4.53;;
7523;SDS011;3803;51.666;7.630;2022-11-24T00:34:19;12.50;;;5.00;;
7523;SDS011;3803;51.666;7.630;2022-11-24T00:34:39;9.90;;;4.30;;
7523;SDS011;3803;51.666;7.630;2022-11-24T00:35:01;12.13;;;4.45;;
7523;SDS011;3803;51.666;7.630;2022-11-24T00:35:21;12.97;;;4.07;;
7523;SDS011;3803;51.666;7.630;2022-11-24T00:35:42;12.88;;;4.07;;
7523;SDS011;3803;51.666;7.630;2022-11-24T00:36:03;12.98;;;3.90;;
7523;SDS011;3803;51.666;7.630;2022-11-24T00:36:28;12.68;;;4.10;;
7523;SDS011;3803;51.666;7.630;2022-11-24T00:36:51;16.00;;;4.28;;
7523;SDS011;3803;51.666;7.630;2022-11-24T00:37:11;16.90;;;4.50;;
7523;SDS011;3803;51.666;7.630;2022-11-24T00:37:32;15.07;;;4.20;;
7523;SDS011;3803;51.666;7.630;2022-11-24T00:37:54;14.90;;;4.28;;
7523;SDS011;3803;51.666;7.630;2022-11-24T00:38:15;13.18;;;4.20;;
7523;SDS011;3803;51.666;7.630;2022-11-24T00:38:35;11.93;;;4.10;;
7523;SDS011;3803;51.666;7.630;2022-11-24T00:38:57;10.68;;;4.10;;
7523;SDS011;3803;51.666;7.630;2022-11-24T00:39:22;12.05;;;4.07;;
7523;SDS011;3803;51.666;7.630;2022-11-24T00:39:43;12.98;;;3.97;;
7523;SDS011;3803;51.666;7.630;2022-11-24T00:40:04;13.90;;;4.40;;
7523;SDS011;3803;51.666;7.630;2022-11-24T00:40:25;15.20;;;4.32;;
7523;SDS011;3803;51.666;7.630;2022-11-24T00:40:46;16.05;;;4.60;;
7523;SDS011;3803;51.666;7.630;2022-11-24T00:41:06;16.17;;;4.20;;
7523;SDS011;3803;51.666;7.630;2022-11-24T00:41:27;15.57;;;4.22;;
7523;SDS011;3803;51.666;7.630;2022-11-24T00:41:49;13.60;;;4.30;;
7523;SDS011;3803;51.666;7.630;2022-11-24T00:42:09;15.27;;;4.50;;
7523;SDS011;3803;51.666;7.630;2022-11-24T00:42:30;17.10;;;5.10;;
7523;SDS011;3803;51.666;7.630;2022-11-24T00:42:51;15.52;;;5.00;;
7523;SDS011;3803;51.666;7.630;2022-11-24T00:43:11;13.23;;;5.00;;
7523;SDS011;3803;51.666;7.630;2022-11-24T00:43:32;11.73;;;4.30;;
7523;SDS011;3803;51.666;7.630;2022-11-24T00:43:53;12.77;;;4.17;;
7523;SDS011;3803;51.666;7.630;2022-11-24T00:44:13;12.65;;;4.05;;
7523;SDS011;3803;51.666;7.630;2022-11-24T00:44:34;12.07;;;4.00;;
7523;SDS011;3803;51.666;7.630;2022-11-24T00:44:55;12.20;;;3.97;;
7523;SDS011;3803;51.666;7.630;2022-11-24T00:45:16;15.23;;;4.35;;
7523;SDS011;3803;51.666;7.630;2022-11-24T00:45:36;15.60;;;4.20;;
7523;SDS011;3803;51.666;7.630;2022-11-24T00:45:57;15.60;;;3.92;;
7523;SDS011;3803;51.666;7.630;2022-11-24T00:46:18;14.93;;;3.90;;
7523;SDS011;3803;51.666;7.630;2022-11-24T00:46:39;15.57;;;4.28;;
7523;SDS011;3803;51.666;7.630;2022-11-24T00:46:59;16.08;;;4.68;;
7523;SDS011;3803;51.666;7.630;2022-11-24T00:47:20;15.20;;;4.97;;
7523;SDS011;3803;51.666;7.630;2022-11-24T00:47:41;13.33;;;4.67;;
7523;SDS011;3803;51.666;7.630;2022-11-24T00:48:01;13.93;;;4.40;;
7523;SDS011;3803;51.666;7.630;2022-11-24T00:48:22;18.20;;;4.63;;
7523;SDS011;3803;51.666;7.630;2022-11-24T00:48:43;17.57;;;4.50;;
7523;SDS011;3803;51.666;7.630;2022-11-24T00:49:04;16.40;;;4.70;;
7523;SDS011;3803;51.666;7.630;2022-11-24T00:49:24;11.20;;;4.30;;
7523;SDS011;3803;51.666;7.630;2022-11-24T00:49:45;12.80;;;4.30;;
7523;SDS011;3803;51.666;7.630;2022-11-24T00:50:06;14.35;;;4.28;;
7523;SDS011;3803;51.666;7.630;2022-11-24T00:50:27;18.58;;;4.22;;
7523;SDS011;3803;51.666;7.630;2022-11-24T00:51:01;17.70;;;4.40;;
7523;SDS011;3803;51.666;7.630;2022-11-24T00:51:24;10.80;;;3.83;;
7523;SDS011;3803;51.666;7.630;2022-11-24T00:51:47;9.43;;;3.78;;
7523;SDS011;3803;51.666;7.630;2022-11-24T00:52:07;9.60;;;3.80;;
7523;SDS011;3803;51.666;7.630;2022-11-24T00:52:28;11.37;;;4.03;;
7523;SDS011;3803;51.666;7.630;2022-11-24T00:52:49;12.35;;;4.28;;
7523;SDS011;3803;51.666;7.630;2022-11-24T00:53:09;13.27;;;4.18;;
7523;SDS011;3803;51.666;7.630;2022-11-24T00:53:30;11.90;;;3.90;;
7523;SDS011;3803;51.666;7.630;2022-11-24T00:53:51;12.93;;;3.97;;
7523;SDS011;3803;51.666;7.630;2022-11-24T00:54:12;14.10;;;4.30;;
7523;SDS011;3803;51.666;7.630;2022-11-24T00:54:33;14.73;;;4.43;;
7523;SDS011;3803;51.666;7.630;2022-11-24T00:54:54;15.90;;;4.40;;
7523;SDS011;3803;51.666;7.630;2022-11-24T00:55:14;14.85;;;4.22;;
7523;SDS011;3803;51.666;7.630;2022-11-24T00:55:35;13.60;;;3.90;;
7523;SDS011;3803;51.666;7.630;2022-11-24T00:55:55;10.93;;;3.90;;
7523;SDS011;3803;51.666;7.630;2022-11-24T00:56:16;11.80;;;4.03;;
7523;SDS011;3803;51.666;7.630;2022-11-24T00:56:37;12.60;;;4.50;;
7523;SDS011;3803;51.666;7.630;2022-11-24T00:56:57;12.25;;;4.47;;
7523;SDS011;3803;51.666;7.630;2022-11-24T00:57:18;12.57;;;4.60;;
7523;SDS011;3803;51.666;7.630;2022-11-24T00:57:39;13.35;;;4.07;;
7523;SDS011;3803;51.666;7.630;2022-11-24T00:57:59;14.05;;;3.88;;
7523;SDS011;3803;51.666;7.630;2022-11-24T00:58:20;11.43;;;3.60;;
7523;SDS011;3803;51.666;7.630;2022-11-24T00:58:42;12.35;;;3.70;;
7523;SDS011;3803;51.666;7.630;2022-11-24T00:59:02;12.70;;;4.10;;
7523;SDS011;3803;51.666;7.630;2022-11-24T00:59:23;12.00;;;3.90;;
7523;SDS011;3803;51.666;7.630;2022-11-24T00:59:44;13.30;;;4.10;;
7523;SDS011;3803;51.666;7.630;2022-11-24T01:00:05;14.80;;;4.00;;
7523;SDS011;3803;51.666;7.630;2022-11-24T01:00:26;14.10;;;3.88;;
7523;SDS011;3803;51.666;7.630;2022-11-24T01:00:46;12.83;;;3.60;;
7523;SDS011;3803;51.666;7.630;2022-11-24T01:01:11;10.80;;;3.47;;
7523;SDS011;3803;51.666;7.630;2022-11-24T01:01:35;11.25;;;3.70;;
7523;SDS011;3803;51.666;7.630;2022-11-24T01:01:55;9.45;;;3.70;;
7523;SDS011;3803;51.666;7.630;2022-11-24T01:02:16;9.90;;;3.65;;
7523;SDS011;3803;51.666;7.630;2022-11-24T01:02:36;11.30;;;3.80;;
7523;SDS011;3803;51.666;7.630;2022-11-24T01:02:57;11.60;;;3.70;;
7523;SDS011;3803;51.666;7.630;2022-11-24T01:03:18;12.23;;;3.80;;
7523;SDS011;3803;51.666;7.630;2022-11-24T01:03:40;11.15;;;3.60;;
7523;SDS011;3803;51.666;7.630;2022-11-24T01:04:02;12.95;;;4.00;;
7523;SDS011;3803;51.666;7.630;2022-11-24T01:04:22;11.48;;;3.80;;
7523;SDS011;3803;51.666;7.630;2022-11-24T01:04:43;11.55;;;3.92;;
7523;SDS011;3803;51.666;7.630;2022-11-24T01:05:04;10.93;;;4.03;;
7523;SDS011;3803;51.666;7.630;2022-11-24T01:05:25;9.90;;;4.20;;
7523;SDS011;3803;51.666;7.630;2022-11-24T01:05:45;10.37;;;4.00;;
7523;SDS011;3803;51.666;7.630;2022-11-24T01:06:09;9.80;;;3.75;;
7523;SDS011;3803;51.666;7.630;2022-11-24T01:06:31;9.32;;;3.70;;
7523;SDS011;3803;51.666;7.630;2022-11-24T01:06:52;8.73;;;3.50;;
7523;SDS011;3803;51.666;7.630;2022-11-24T01:07:12;8.80;;;3.57;;
7523;SDS011;3803;51.666;7.630;2022-11-24T01:07:33;10.03;;;3.70;;
7523;SDS011;3803;51.666;7.630;2022-11-24T01:07:54;9.38;;;3.72;;
7523;SDS011;3803;51.666;7.630;2022-11-24T01:08:14;10.87;;;4.10;;
7523;SDS011;3803;51.666;7.630;2022-11-24T01:08:35;10.40;;;4.10;;
7523;SDS011;3803;51.666;7.630;2022-11-24T01:08:57;12.18;;;4.30;;
7523;SDS011;3803;51.666;7.630;2022-11-24T01:09:18;10.20;;;3.97;;
7523;SDS011;3803;51.666;7.630;2022-11-24T01:09:38;11.70;;;3.90;;
7523;SDS011;3803;51.666;7.630;2022-11-24T01:10:02;11.93;;;4.18;;
7523;SDS011;3803;51.666;7.630;2022-11-24T01:10:23;13.00;;;4.07;;
7523;SDS011;3803;51.666;7.630;2022-11-24T01:10:43;11.83;;;4.00;;
7523;SDS011;3803;51.666;7.630;2022-11-24T01:12:13;15.55;;;4.35;;
7523;SDS011;3803;51.666;7.630;2022-11-24T01:12:34;12.77;;;4.20;;
7523;SDS011;3803;51.666;7.630;2022-11-24T01:12:55;13.40;;;4.25;;
7523;SDS011;3803;51.666;7.630;2022-11-24T01:13:16;13.50;;;4.07;;
7523;SDS011;3803;51.666;7.630;2022-11-24T01:13:36;12.47;;;4.13;;
7523;SDS011;3803;51.666;7.630;2022-11-24T01:13:58;11.20;;;4.00;;
7523;SDS011;3803;51.666;7.630;2022-11-24T01:14:20;10.63;;;4.20;;
7523;SDS011;3803;51.666;7.630;2022-11-24T01:14:42;13.70;;;4.70;;
7523;SDS011;3803;51.666;7.630;2022-11-24T01:15:02;16.95;;;5.00;;
7523;SDS011;3803;51.666;7.630;2022-11-24T01:15:23;17.13;;;4.60;;
7523;SDS011;3803;51.666;7.630;2022-11-24T01:15:44;16.80;;;4.10;;
7523;SDS011;3803;51.666;7.630;2022-11-24T01:16:05;13.20;;;3.75;;
7523;SDS011;3803;51.666;7.630;2022-11-24T01:16:32;11.10;;;3.80;;
7523;SDS011;3803;51.666;7.630;2022-11-24T01:16:54;9.45;;;4.00;;
7523;SDS011;3803;51.666;7.630;2022-11-24T01:17:15;10.70;;;4.03;;
7523;SDS011;3803;51.666;7.630;2022-11-24T01:17:36;10.80;;;4.07;;
7523;SDS011;3803;51.666;7.630;2022-11-24T01:17:56;10.30;;;4.03;;
7523;SDS011;3803;51.666;7.630;2022-11-24T01:18:17;12.53;;;4.50;;
7523;SDS011;3803;51.666;7.630;2022-11-24T01:18:38;11.70;;;4.38;;
7523;SDS011;3803;51.666;7.630;2022-11-24T01:18:59;11.88;;;4.63;;
7523;SDS011;3803;51.666;7.630;2022-11-24T01:19:20;10.18;;;4.30;;
7523;SDS011;3803;51.666;7.630;2022-11-24T01:19:41;10.52;;;4.30;;
7523;SDS011;3803;51.666;7.630;2022-11-24T01:20:01;10.50;;;4.00;;
7523;SDS011;3803;51.666;7.630;2022-11-24T01:20:23;11.45;;;4.05;;
7523;SDS011;3803;51.666;7.630;2022-11-24T01:20:44;11.50;;;4.20;;
7523;SDS011;3803;51.666;7.630;2022-11-24T01:21:05;10.87;;;3.90;;
7523;SDS011;3803;51.666;7.630;2022-11-24T01:21:25;9.85;;;3.92;;
7523;SDS011;3803;51.666;7.630;2022-11-24T01:21:46;12.25;;;4.07;;
7523;SDS011;3803;51.666;7.630;2022-11-24T01:22:07;10.85;;;4.07;;
7523;SDS011;3803;51.666;7.630;2022-11-24T01:22:28;12.60;;;4.00;;
7523;SDS011;3803;51.666;7.630;2022-11-24T01:22:48;12.93;;;4.07;;
7523;SDS011;3803;51.666;7.630;2022-11-24T01:23:09;14.77;;;4.18;;
7523;SDS011;3803;51.666;7.630;2022-11-24T01:23:30;15.57;;;4.53;;
7523;SDS011;3803;51.666;7.630;2022-11-24T01:23:51;12.90;;;4.47;;
7523;SDS011;3803;51.666;7.630;2022-11-24T01:24:12;10.63;;;4.18;;
7523;SDS011;3803;51.666;7.630;2022-11-24T01:24:33;10.05;;;4.10;;
7523;SDS011;3803;51.666;7.630;2022-11-24T01:24:53;10.77;;;3.90;;
7523;SDS011;3803;51.666;7.630;2022-11-24T01:25:14;11.23;;;3.88;;
7523;SDS011;3803;51.666;7.630;2022-11-24T01:25:37;10.40;;;3.50;;
7523;SDS011;3803;51.666;7.630;2022-11-24T01:25:59;10.02;;;3.60;;
7523;SDS011;3803;51.666;7.630;2022-11-24T01:26:23;9.70;;;3.45;;
7523;SDS011;3803;51.666;7.630;2022-11-24T01:26:43;11.82;;;4.25;;
7523;SDS011;3803;51.666;7.630;2022-11-24T01:27:04;13.32;;;4.53;;
7523;SDS011;3803;51.666;7.630;2022-11-24T01:27:25;12.68;;;4.57;;
7523;SDS011;3803;51.666;7.630;2022-11-24T01:27:46;11.90;;;4.20;;
7523;SDS011;3803;51.666;7.630;2022-11-24T01:28:06;10.67;;;3.80;;
7523;SDS011;3803;51.666;7.630;2022-11-24T01:28:41;12.90;;;4.00;;
7523;SDS011;3803;51.666;7.630;2022-11-24T01:29:02;12.75;;;4.05;;
7523;SDS011;3803;51.666;7.630;2022-11-24T01:29:23;11.80;;;4.03;;
7523;SDS011;3803;51.666;7.630;2022-11-24T01:29:45;11.35;;;4.15;;
7523;SDS011;3803;51.666;7.630;2022-11-24T01:30:06;9.77;;;3.90;;
7523;SDS011;3803;51.666;7.630;2022-11-24T01:30:27;10.05;;;4.10;;
7523;SDS011;3803;51.666;7.630;2022-11-24T01:31:00;11.03;;;3.90;;
7523;SDS011;3803;51.666;7.630;2022-11-24T01:31:23;15.45;;;4.30;;
7523;SDS011;3803;51.666;7.630;2022-11-24T01:31:45;14.65;;;4.20;;
7523;SDS011;3803;51.666;7.630;2022-11-24T01:32:05;14.00;;;4.10;;
7523;SDS011;3803;51.666;7.630;2022-11-24T01:32:26;12.88;;;3.70;;
7523;SDS011;3803;51.666;7.630;2022-11-24T01:32:47;12.93;;;3.60;;
7523;SDS011;3803;51.666;7.630;2022-11-24T01:33:07;12.30;;;3.90;;
7523;SDS011;3803;51.666;7.630;2022-11-24T01:33:28;9.98;;;3.80;;
7523;SDS011;3803;51.666;7.630;2022-11-24T01:33:49;9.07;;;3.83;;
7523;SDS011;3803;51.666;7.630;2022-11-24T01:34:10;9.13;;;3.50;;
7523;SDS011;3803;51.666;7.630;2022-11-24T01:34:32;12.05;;;3.70;;
7523;SDS011;3803;51.666;7.630;2022-11-24T01:34:52;13.27;;;3.30;;
7523;SDS011;3803;51.666;7.630;2022-11-24T01:35:13;14.65;;;3.60;;
7523;SDS011;3803;51.666;7.630;2022-11-24T01:35:35;12.90;;;3.73;;
7523;SDS011;3803;51.666;7.630;2022-11-24T01:35:56;13.40;;;3.97;;
7523;SDS011;3803;51.666;7.630;2022-11-24T01:36:17;13.02;;;3.95;;
7523;SDS011;3803;51.666;7.630;2022-11-24T01:36:38;13.13;;;3.90;;
7523;SDS011;3803;51.666;7.630;2022-11-24T01:36:59;10.82;;;4.00;;
7523;SDS011;3803;51.666;7.630;2022-11-24T01:37:20;9.47;;;4.00;;
7523;SDS011;3803;51.666;7.630;2022-11-24T01:37:40;9.40;;;4.15;;
7523;SDS011;3803;51.666;7.630;2022-11-24T01:38:01;11.25;;;4.30;;
7523;SDS011;3803;51.666;7.630;2022-11-24T01:38:22;11.83;;;4.00;;
7523;SDS011;3803;51.666;7.630;2022-11-24T01:38:43;10.82;;;3.70;;
7523;SDS011;3803;51.666;7.630;2022-11-24T01:39:03;9.38;;;3.40;;
7523;SDS011;3803;51.666;7.630;2022-11-24T01:39:24;11.50;;;3.67;;
7523;SDS011;3803;51.666;7.630;2022-11-24T01:39:45;11.45;;;3.83;;
7523;SDS011;3803;51.666;7.630;2022-11-24T01:40:06;14.65;;;3.90;;
7523;SDS011;3803;51.666;7.630;2022-11-24T01:40:27;15.35;;;4.10;;
7523;SDS011;3803;51.666;7.630;2022-11-24T01:40:48;17.25;;;3.88;;
7523;SDS011;3803;51.666;7.630;2022-11-24T01:41:12;12.38;;;3.80;;
7523;SDS011;3803;51.666;7.630;2022-11-24T01:41:34;10.60;;;3.63;;
7523;SDS011;3803;51.666;7.630;2022-11-24T01:41:55;14.80;;;4.10;;
7523;SDS011;3803;51.666;7.630;2022-11-24T01:42:15;14.93;;;4.00;;
7523;SDS011;3803;51.666;7.630;2022-11-24T01:42:39;16.52;;;3.90;;
7523;SDS011;3803;51.666;7.630;2022-11-24T01:43:20;14.35;;;3.63;;
7523;SDS011;3803;51.666;7.630;2022-11-24T01:43:42;14.70;;;4.03;;
7523;SDS011;3803;51.666;7.630;2022-11-24T01:44:19;14.38;;;4.00;;
7523;SDS011;3803;51.666;7.630;2022-11-24T01:44:40;8.93;;;3.67;;
7523;SDS011;3803;51.666;7.630;2022-11-24T01:45:49;9.73;;;3.50;;
7523;SDS011;3803;51.666;7.630;2022-11-24T01:46:29;10.65;;;3.65;;
7523;SDS011;3803;51.666;7.630;2022-11-24T01:46:52;11.18;;;3.80;;
7523;SDS011;3803;51.666;7.630;2022-11-24T01:47:51;11.18;;;4.10;;
7523;SDS011;3803;51.666;7.630;2022-11-24T01:48:05;12.25;;;4.15;;
7523;SDS011;3803;51.666;7.630;2022-11-24T01:48:35;14.57;;;4.30;;
7523;SDS011;3803;51.666;7.630;2022-11-24T01:49:57;13.02;;;4.00;;
7523;SDS011;3803;51.666;7.630;2022-11-24T01:50:21;11.85;;;3.47;;
7523;SDS011;3803;51.666;7.630;2022-11-24T01:50:42;12.45;;;3.45;;
7523;SDS011;3803;51.666;7.630;2022-11-24T01:51:07;13.82;;;3.75;;
7523;SDS011;3803;51.666;7.630;2022-11-24T01:51:52;13.20;;;3.70;;
7523;SDS011;3803;51.666;7.630;2022-11-24T01:52:18;9.30;;;3.60;;
7523;SDS011;3803;51.666;7.630;2022-11-24T01:52:50;10.70;;;4.10;;
7523;SDS011;3803;51.666;7.630;2022-11-24T01:53:13;11.57;;;4.35;;
7523;SDS011;3803;51.666;7.630;2022-11-24T01:53:34;10.73;;;4.00;;
7523;SDS011;3803;51.666;7.630;2022-11-24T01:53:56;10.00;;;3.90;;
7523;SDS011;3803;51.666;7.630;2022-11-24T01:54:26;9.63;;;4.00;;
7523;SDS011;3803;51.666;7.630;2022-11-24T01:54:51;11.95;;;4.00;;
7523;SDS011;3803;51.666;7.630;2022-11-24T01:55:16;12.05;;;3.90;;
7523;SDS011;3803;51.666;7.630;2022-11-24T01:55:42;11.48;;;3.70;;
7523;SDS011;3803;51.666;7.630;2022-11-24T01:56:02;11.50;;;3.80;;
7523;SDS011;3803;51.666;7.630;2022-11-24T01:56:24;9.07;;;3.30;;
7523;SDS011;3803;51.666;7.630;2022-11-24T01:56:47;11.30;;;3.90;;
7523;SDS011;3803;51.666;7.630;2022-11-24T01:57:14;11.57;;;4.03;;
7523;SDS011;3803;51.666;7.630;2022-11-24T01:57:43;11.20;;;3.88;;
7523;SDS011;3803;51.666;7.630;2022-11-24T01:58:11;13.60;;;3.90;;
7523;SDS011;3803;51.666;7.630;2022-11-24T01:58:34;12.52;;;3.63;;
7523;SDS011;3803;51.666;7.630;2022-11-24T01:58:57;10.00;;;3.83;;
7523;SDS011;3803;51.666;7.630;2022-11-24T01:59:21;10.80;;;3.60;;
7523;SDS011;3803;51.666;7.630;2022-11-24T01:59:43;11.00;;;3.50;;
7523;SDS011;3803;51.666;7.630;2022-11-24T02:00:10;9.93;;;3.38;;
7523;SDS011;3803;51.666;7.630;2022-11-24T02:00:37;9.90;;;3.50;;
7523;SDS011;3803;51.666;7.630;2022-11-24T02:01:02;9.95;;;3.55;;
7523;SDS011;3803;51.666;7.630;2022-11-24T02:01:23;11.73;;;3.50;;
7523;SDS011;3803;51.666;7.630;2022-11-24T02:01:44;10.10;;;3.50;;
7523;SDS011;3803;51.666;7.630;2022-11-24T02:02:08;10.93;;;3.42;;
7523;SDS011;3803;51.666;7.630;2022-11-24T02:02:28;9.50;;;3.30;;
7523;SDS011;3803;51.666;7.630;2022-11-24T02:02:49;10.82;;;3.60;;
7523;SDS011;3803;51.666;7.630;2022-11-24T02:03:11;9.88;;;3.38;;
7523;SDS011;3803;51.666;7.630;2022-11-24T02:03:36;9.43;;;3.60;;
7523;SDS011;3803;51.666;7.630;2022-11-24T02:04:01;12.70;;;4.00;;
7523;SDS011;3803;51.666;7.630;2022-11-24T02:04:26;13.93;;;4.13;;
7523;SDS011;3803;51.666;7.630;2022-11-24T02:04:52;10.32;;;3.60;;
7523;SDS011;3803;51.666;7.630;2022-11-24T02:05:17;8.50;;;3.80;;
7523;SDS011;3803;51.666;7.630;2022-11-24T02:06:25;8.63;;;3.40;;
7523;SDS011;3803;51.666;7.630;2022-11-24T02:06:48;7.95;;;3.33;;
7523;SDS011;3803;51.666;7.630;2022-11-24T02:07:11;8.73;;;3.70;;
7523;SDS011;3803;51.666;7.630;2022-11-24T02:07:33;8.55;;;4.05;;
7523;SDS011;3803;51.666;7.630;2022-11-24T02:07:55;10.23;;;4.30;;
7523;SDS011;3803;51.666;7.630;2022-11-24T02:08:21;11.85;;;4.70;;
7523;SDS011;3803;51.666;7.630;2022-11-24T02:09:02;12.90;;;4.20;;
7523;SDS011;3803;51.666;7.630;2022-11-24T02:09:50;9.45;;;3.20;;
7523;SDS011;3803;51.666;7.630;2022-11-24T02:10:18;11.75;;;3.50;;
7523;SDS011;3803;51.666;7.630;2022-11-24T02:10:40;12.70;;;3.60;;
7523;SDS011;3803;51.666;7.630;2022-11-24T02:11:02;12.98;;;3.58;;
7523;SDS011;3803;51.666;7.630;2022-11-24T02:11:24;10.57;;;3.40;;
7523;SDS011;3803;51.666;7.630;2022-11-24T02:11:48;10.15;;;3.53;;
7523;SDS011;3803;51.666;7.630;2022-11-24T02:12:09;12.05;;;4.00;;
7523;SDS011;3803;51.666;7.630;2022-11-24T02:12:30;10.82;;;3.95;;
7523;SDS011;3803;51.666;7.630;2022-11-24T02:12:53;11.55;;;4.15;;
7523;SDS011;3803;51.666;7.630;2022-11-24T02:13:15;10.55;;;4.10;;
7523;SDS011;3803;51.666;7.630;2022-11-24T02:13:37;11.20;;;3.80;;
7523;SDS011;3803;51.666;7.630;2022-11-24T02:13:59;12.60;;;3.67;;
7523;SDS011;3803;51.666;7.630;2022-11-24T02:14:20;13.75;;;3.88;;
7523;SDS011;3803;51.666;7.630;2022-11-24T02:14:42;14.98;;;4.20;;
7523;SDS011;3803;51.666;7.630;2022-11-24T02:15:05;12.98;;;4.10;;
7523;SDS011;3803;51.666;7.630;2022-11-24T02:15:27;10.63;;;3.50;;
7523;SDS011;3803;51.666;7.630;2022-11-24T02:15:48;11.35;;;3.45;;
7523;SDS011;3803;51.666;7.630;2022-11-24T02:16:09;10.95;;;3.50;;
7523;SDS011;3803;51.666;7.630;2022-11-24T02:16:31;11.27;;;3.70;;
7523;SDS011;3803;51.666;7.630;2022-11-24T02:16:54;11.48;;;3.88;;
7523;SDS011;3803;51.666;7.630;2022-11-24T02:17:15;13.70;;;4.10;;
7523;SDS011;3803;51.666;7.630;2022-11-24T02:17:36;11.83;;;3.90;;
7523;SDS011;3803;51.666;7.630;2022-11-24T02:17:57;11.00;;;3.97;;
7523;SDS011;3803;51.666;7.630;2022-11-24T02:18:18;9.95;;;4.07;;
7523;SDS011;3803;51.666;7.630;2022-11-24T02:18:47;11.77;;;4.20;;
7523;SDS011;3803;51.666;7.630;2022-11-24T02:20:12;13.65;;;3.78;;
7523;SDS011;3803;51.666;7.630;2022-11-24T02:20:34;14.88;;;4.32;;
7523;SDS011;3803;51.666;7.630;2022-11-24T02:20:54;12.57;;;4.20;;
7523;SDS011;3803;51.666;7.630;2022-11-24T02:21:15;15.45;;;4.40;;